Las Vegas, Nevada
Traffic Map
Current Weather Conditions
Las Vegas, Nevada
Broken Clouds
Broken Clouds
104°
Feels Like: 104°
Wind Chill: 104° Ceiling: 25000
Heat Index: 104° Visibility: 10mi
Dew Point: 27° Wind: 13mph
Humidity: 7% Direction: 210° (SSW)
Pressure: 29.8in Gusts: 24mph
Raw Report DataKLAS 042356Z 21011G21KT 10SM FEW150 BKN250 40/M03 A2980 RMK SLP058 ACSL NW T04001028 10411 20372 56013
Traffic Incident Summary
Active as of:
Severity:
Category:
InformationThere was an issue retrieving the traffic information for this location. Please try a different location or try again shortly.
Advertisements
Track Severe Weather on mobile